createdAt,value
2023-04-16T00:00:48.595Z,100075.25
2023-04-16T00:03:53.746Z,100074.59
2023-04-16T00:07:01.154Z,100084.00
2023-04-16T00:10:08.434Z,100085.59
2023-04-16T00:13:15.556Z,100071.88
2023-04-16T00:16:17.881Z,100083.94
2023-04-16T00:19:22.308Z,100077.88
2023-04-16T00:22:27.366Z,100080.22
2023-04-16T00:25:31.798Z,100074.00
2023-04-16T00:28:36.268Z,100078.56
2023-04-16T00:31:40.815Z,100077.31
2023-04-16T00:34:45.568Z,100077.31
2023-04-16T00:37:50.082Z,100074.00
2023-04-16T00:40:54.584Z,100077.38
2023-04-16T00:43:59.534Z,100084.91
2023-04-16T00:47:07.750Z,100079.94
2023-04-16T00:50:11.619Z,100082.69
2023-04-16T00:53:15.275Z,100081.66
2023-04-16T00:56:18.149Z,100075.41
2023-04-16T00:59:20.972Z,100075.66
2023-04-16T01:02:23.708Z,100077.69
2023-04-16T01:05:28.842Z,100084.41
2023-04-16T01:08:34.078Z,100085.88
2023-04-16T01:11:38.494Z,100085.09
2023-04-16T01:14:45.523Z,100090.72
2023-04-16T01:17:48.200Z,100091.31
2023-04-16T01:20:51.297Z,100086.72
2023-04-16T01:23:56.237Z,100094.44
2023-04-16T01:26:59.606Z,100095.13
2023-04-16T01:30:04.666Z,100088.88
2023-04-16T01:33:23.418Z,100104.72
2023-04-16T01:36:27.434Z,100090.34
2023-04-16T01:39:32.943Z,100091.59
2023-04-16T01:42:35.386Z,100092.00
2023-04-16T01:45:40.371Z,100088.66
2023-04-16T01:48:49.839Z,100094.28
2023-04-16T01:51:54.388Z,100096.81
2023-04-16T01:54:56.702Z,100092.22
2023-04-16T01:58:01.459Z,100087.00
2023-04-16T02:01:07.902Z,100089.69
2023-04-16T02:04:13.185Z,100084.28
2023-04-16T02:07:17.743Z,100089.13
2023-04-16T02:10:24.591Z,100097.28
2023-04-16T02:13:27.140Z,100119.38
2023-04-16T02:16:29.721Z,100109.16
2023-04-16T02:19:39.420Z,100116.88
2023-04-16T02:22:45.767Z,100121.94
2023-04-16T02:25:51.678Z,100118.34
2023-04-16T02:28:56.265Z,100113.75
2023-04-16T02:32:03.805Z,100109.38
2023-04-16T02:35:08.131Z,100114.00
2023-04-16T02:38:12.672Z,100116.09
2023-04-16T02:41:15.282Z,100102.97
2023-04-16T02:44:17.534Z,100105.28
2023-04-16T02:47:23.190Z,100104.19
2023-04-16T02:50:30.429Z,100108.16
2023-04-16T02:53:35.183Z,100105.69
2023-04-16T02:56:37.493Z,100108.19
2023-04-16T02:59:39.748Z,100099.88
2023-04-16T03:02:44.676Z,100104.88
2023-04-16T03:05:47.469Z,100113.84
2023-04-16T03:08:49.878Z,100114.06
2023-04-16T03:11:52.105Z,100126.13
2023-04-16T03:14:56.458Z,100107.81
2023-04-16T03:17:59.001Z,100120.94
2023-04-16T03:21:01.379Z,100120.31
2023-04-16T03:24:06.258Z,100129.06
2023-04-16T03:27:08.661Z,100111.59
2023-04-16T03:30:12.505Z,100142.00
2023-04-16T03:33:20.752Z,100143.25
2023-04-16T03:36:24.203Z,100160.16
2023-04-16T03:39:28.752Z,100165.78
2023-04-16T03:42:31.007Z,100169.94
2023-04-16T03:45:36.333Z,100180.78
2023-04-16T03:48:43.434Z,100171.59
2023-04-16T03:51:49.127Z,100169.13
2023-04-16T03:54:56.430Z,100169.13
2023-04-16T03:58:07.632Z,100179.56
2023-04-16T04:01:14.855Z,100176.84
2023-04-16T04:04:19.866Z,100181.63
2023-04-16T04:07:22.226Z,100171.19
2023-04-16T04:10:26.734Z,100177.88
2023-04-16T04:13:29.152Z,100180.78
2023-04-16T04:16:32.452Z,100183.09
2023-04-16T04:19:35.456Z,100174.31
2023-04-16T04:22:38.371Z,100191.22
2023-04-16T04:25:41.703Z,100183.91
2023-04-16T04:28:44.223Z,100187.88
2023-04-16T04:31:47.048Z,100195.81
2023-04-16T04:34:51.707Z,100200.81
2023-04-16T04:37:53.995Z,100195.19
2023-04-16T04:40:56.816Z,100199.13
2023-04-16T04:44:05.329Z,100195.19
2023-04-16T04:47:07.865Z,100198.09
2023-04-16T04:50:14.800Z,100205.41
2023-04-16T04:53:17.018Z,100200.38
2023-04-16T04:56:19.247Z,100212.06
2023-04-16T04:59:21.736Z,100204.75
2023-04-16T05:02:24.567Z,100210.81
2023-04-16T05:05:27.075Z,100223.34
2023-04-16T05:08:34.082Z,100217.69
2023-04-16T05:11:42.136Z,100210.63
2023-04-16T05:14:44.379Z,100197.88
2023-04-16T05:17:48.917Z,100194.13
2023-04-16T05:20:51.277Z,100206.63
2023-04-16T05:23:53.748Z,100211.63
2023-04-16T05:26:57.331Z,100223.31
2023-04-16T05:29:59.634Z,100220.00
2023-04-16T05:33:01.894Z,100235.03
2023-04-16T05:36:06.888Z,100229.59
2023-04-16T05:39:12.190Z,100238.78
2023-04-16T05:42:14.558Z,100231.88
2023-04-16T05:45:16.885Z,100245.00
2023-04-16T05:48:20.254Z,100247.09
2023-04-16T05:51:26.157Z,100247.31
2023-04-16T05:54:28.415Z,100246.66
2023-04-16T05:57:36.639Z,100255.63
2023-04-16T06:00:39.405Z,100254.41
2023-04-16T06:03:41.673Z,100271.72
2023-04-16T06:06:47.710Z,100253.75
2023-04-16T06:09:49.944Z,100258.34
2023-04-16T06:12:52.184Z,100243.94
2023-04-16T06:15:56.803Z,100253.53
2023-04-16T06:18:59.309Z,100253.91
2023-04-16T06:22:06.856Z,100245.56
2023-04-16T06:25:09.642Z,100248.91
2023-04-16T06:28:15.339Z,100245.28
2023-04-16T06:31:18.703Z,100259.44
2023-04-16T06:34:25.758Z,100252.75
2023-04-16T06:37:30.317Z,100243.09
2023-04-16T06:40:37.639Z,100246.34
2023-04-16T06:43:42.950Z,100250.66
2023-04-16T06:46:45.350Z,100246.94
2023-04-16T06:49:49.887Z,100229.25
2023-04-16T06:52:54.817Z,100240.41
2023-04-16T06:55:59.863Z,100240.19
2023-04-16T06:59:02.093Z,100243.81
2023-04-16T07:02:10.606Z,100255.75
2023-04-16T07:05:13.160Z,100257.78
2023-04-16T07:08:20.269Z,100237.97
2023-04-16T07:11:22.645Z,100252.47
2023-04-16T07:14:24.957Z,100249.09
2023-04-16T07:17:31.855Z,100233.97
2023-04-16T07:20:34.214Z,100242.72
2023-04-16T07:23:38.682Z,100249.16
2023-04-16T07:26:43.073Z,100237.19
2023-04-16T07:29:45.984Z,100241.06
2023-04-16T07:32:51.661Z,100243.94
2023-04-16T07:35:53.958Z,100244.53
2023-04-16T07:38:56.311Z,100236.94
2023-04-16T07:42:00.897Z,100235.59
2023-04-16T07:45:05.635Z,100236.56
2023-04-16T07:48:11.301Z,100237.16
2023-04-16T07:51:14.125Z,100242.50
2023-04-16T07:54:16.401Z,100241.31
2023-04-16T07:57:18.682Z,100248.59
2023-04-16T08:00:23.477Z,100239.56
2023-04-16T08:03:27.515Z,100254.41
2023-04-16T08:06:35.275Z,100234.63
2023-04-16T08:09:47.988Z,100247.72
2023-04-16T08:12:55.043Z,100237.34
2023-04-16T08:16:04.664Z,100228.19
2023-04-16T08:19:06.980Z,100236.91
2023-04-16T08:22:09.410Z,100247.69
2023-04-16T08:25:13.017Z,100241.47
2023-04-16T08:28:20.331Z,100251.66
2023-04-16T08:31:25.024Z,100248.13
2023-04-16T08:34:27.353Z,100240.84
2023-04-16T08:37:32.343Z,100260.09
2023-04-16T08:40:44.583Z,100266.63
2023-04-16T08:43:51.086Z,100255.56
2023-04-16T08:47:00.602Z,100263.47
2023-04-16T08:50:06.603Z,100258.06
2023-04-16T08:53:16.595Z,100266.78
2023-04-16T08:56:23.735Z,100269.75
2023-04-16T08:59:27.045Z,100268.53
2023-04-16T09:02:31.498Z,100269.34
2023-04-16T09:05:34.175Z,100261.13
2023-04-16T09:08:38.245Z,100277.56
2023-04-16T09:11:40.628Z,100271.28
2023-04-16T09:14:44.192Z,100282.22
2023-04-16T09:17:46.615Z,100296.50
2023-04-16T09:20:56.379Z,100281.53
2023-04-16T09:24:01.995Z,100292.22
2023-04-16T09:27:04.952Z,100286.38
2023-04-16T09:30:27.528Z,100285.81
2023-04-16T09:33:35.086Z,100274.03
2023-04-16T09:36:37.478Z,100291.88
2023-04-16T09:39:41.935Z,100294.00
2023-04-16T09:42:44.283Z,100305.28
2023-04-16T09:45:56.981Z,100303.38
2023-04-16T09:49:05.628Z,100311.94
2023-04-16T09:52:17.541Z,100308.88
2023-04-16T09:55:27.008Z,100294.84
2023-04-16T09:58:32.072Z,100291.34
2023-04-16T10:01:38.771Z,100294.75
2023-04-16T10:04:51.932Z,100292.53
2023-04-16T10:08:00.167Z,100278.19
2023-04-16T10:11:02.997Z,100280.72
2023-04-16T10:14:07.525Z,100274.50
2023-04-16T10:17:12.514Z,100266.69
2023-04-16T10:20:18.499Z,100271.34
2023-04-16T10:23:26.593Z,100271.66
2023-04-16T10:26:35.819Z,100268.69
2023-04-16T10:29:41.374Z,100258.69
2023-04-16T10:32:49.206Z,100262.41
2023-04-16T10:36:08.223Z,100253.50
2023-04-16T10:39:20.156Z,100251.00
2023-04-16T10:42:28.065Z,100256.81
2023-04-16T10:45:32.771Z,100240.41
2023-04-16T10:48:46.780Z,100244.09
2023-04-16T10:52:07.550Z,100247.50
2023-04-16T10:55:17.389Z,100237.94
2023-04-16T10:58:30.296Z,100239.53
2023-04-16T11:01:36.941Z,100232.22
2023-04-16T11:04:46.730Z,100230.38
2023-04-16T11:07:49.978Z,100235.03
2023-04-16T11:10:53.097Z,100233.88
2023-04-16T11:13:56.976Z,100230.34
2023-04-16T11:17:04.946Z,100224.63
2023-04-16T11:20:23.755Z,100235.03
2023-04-16T11:23:29.363Z,100228.72
2023-04-16T11:26:34.211Z,100225.69
2023-04-16T11:29:39.100Z,100239.53
2023-04-16T11:32:41.499Z,100234.59
2023-04-16T11:35:45.887Z,100227.69
2023-04-16T11:38:48.257Z,100212.47
2023-04-16T11:41:52.508Z,100224.81
2023-04-16T11:45:00.805Z,100225.88
2023-04-16T11:48:03.295Z,100234.53
2023-04-16T11:51:05.531Z,100218.84
2023-04-16T11:54:18.351Z,100223.25
2023-04-16T11:57:31.074Z,100216.66
2023-04-16T12:00:35.590Z,100223.00
2023-04-16T12:03:44.257Z,100220.34
2023-04-16T12:07:11.309Z,100216.50
2023-04-16T12:10:16.129Z,100207.97
2023-04-16T12:13:19.704Z,100206.59
2023-04-16T12:16:22.031Z,100208.50
2023-04-16T12:19:26.552Z,100197.47
2023-04-16T12:22:31.982Z,100204.34
2023-04-16T12:25:50.080Z,100191.13
2023-04-16T12:28:52.614Z,100197.75
2023-04-16T12:31:54.983Z,100198.00
2023-04-16T12:34:59.842Z,100199.44
2023-04-16T12:38:07.038Z,100196.09
2023-04-16T12:41:09.393Z,100194.75
2023-04-16T12:44:17.910Z,100184.56
2023-04-16T12:47:22.725Z,100180.13
2023-04-16T12:50:28.874Z,100182.06
2023-04-16T12:53:34.082Z,100170.53
2023-04-16T12:56:39.055Z,100184.28
2023-04-16T12:59:41.284Z,100179.03
2023-04-16T13:02:43.656Z,100181.81
2023-04-16T13:05:46.058Z,100171.34
2023-04-16T13:08:50.940Z,100168.59
2023-04-16T13:11:53.235Z,100150.13
2023-04-16T13:14:55.971Z,100163.91
2023-04-16T13:17:58.257Z,100166.09
2023-04-16T13:21:03.603Z,100154.81
2023-04-16T13:24:09.056Z,100162.25
2023-04-16T13:27:11.391Z,100160.84
2023-04-16T13:30:13.988Z,100148.75
2023-04-16T13:33:16.433Z,100160.31
2023-04-16T13:36:20.981Z,100142.16
2023-04-16T13:39:23.229Z,100141.59
2023-04-16T13:42:28.444Z,100150.97
2023-04-16T13:45:30.901Z,100143.78
2023-04-16T13:48:34.018Z,100141.59
2023-04-16T13:51:37.706Z,100140.50
2023-04-16T13:54:43.052Z,100144.34
2023-04-16T13:57:56.381Z,100139.94
2023-04-16T14:00:58.806Z,100135.53
2023-04-16T14:04:06.414Z,100123.41
2023-04-16T14:07:09.173Z,100133.31
2023-04-16T14:10:11.523Z,100124.50
2023-04-16T14:13:21.095Z,100132.50
2023-04-16T14:16:25.894Z,100126.72
2023-04-16T14:19:28.208Z,100124.22
2023-04-16T14:22:30.658Z,100131.09
2023-04-16T14:25:38.244Z,100130.28
2023-04-16T14:28:45.810Z,100129.44
2023-04-16T14:31:50.460Z,100120.31
2023-04-16T14:34:52.906Z,100122.81
2023-04-16T14:37:57.185Z,100116.19
2023-04-16T14:41:04.366Z,100121.97
2023-04-16T14:44:06.910Z,100120.63
2023-04-16T14:47:11.582Z,100129.44
2023-04-16T14:50:14.310Z,100122.81
2023-04-16T14:53:16.864Z,100119.50
2023-04-16T14:56:21.554Z,100117.31
2023-04-16T14:59:23.888Z,100119.53
2023-04-16T15:02:26.380Z,100104.94
2023-04-16T15:05:32.613Z,100118.44
2023-04-16T15:08:37.306Z,100112.91
2023-04-16T15:11:41.641Z,100106.03
2023-04-16T15:14:43.864Z,100107.72
2023-04-16T15:17:46.217Z,100105.78
2023-04-16T15:20:48.537Z,100110.72
2023-04-16T15:23:55.486Z,100109.91
2023-04-16T15:26:58.192Z,100108.25
2023-04-16T15:30:03.015Z,100103.03
2023-04-16T15:33:05.445Z,100106.06
2023-04-16T15:36:07.842Z,100102.19
2023-04-16T15:39:10.882Z,100104.69
2023-04-16T15:42:13.462Z,100107.97
2023-04-16T15:45:15.912Z,100103.56
2023-04-16T15:48:21.369Z,100116.25
2023-04-16T15:51:26.788Z,100118.19
2023-04-16T15:54:30.769Z,100114.88
2023-04-16T15:57:35.731Z,100118.41
2023-04-16T16:00:37.994Z,100115.94
2023-04-16T16:03:42.812Z,100103.56
2023-04-16T16:06:45.232Z,100109.59
2023-04-16T16:09:48.093Z,100113.97
2023-04-16T16:12:50.429Z,100120.03
2023-04-16T16:15:52.779Z,100115.06
2023-04-16T16:18:57.229Z,100119.19
2023-04-16T16:22:01.658Z,100121.16
2023-04-16T16:25:07.146Z,100117.81
2023-04-16T16:28:09.369Z,100131.03
2023-04-16T16:31:12.585Z,100131.03
2023-04-16T16:34:20.449Z,100119.75
2023-04-16T16:37:26.666Z,100128.56
2023-04-16T16:40:29.069Z,100126.66
2023-04-16T16:43:31.623Z,100126.66
2023-04-16T16:46:36.903Z,100110.13
2023-04-16T16:49:41.261Z,100127.75
2023-04-16T16:52:44.714Z,100123.88
2023-04-16T16:55:51.412Z,100116.16
2023-04-16T16:59:01.847Z,100139.28
2023-04-16T17:02:07.131Z,100127.66
2023-04-16T17:05:09.823Z,100137.59
2023-04-16T17:08:17.372Z,100136.19
2023-04-16T17:11:19.768Z,100130.69
2023-04-16T17:14:22.356Z,100133.69
2023-04-16T17:17:25.155Z,100143.88
2023-04-16T17:20:34.422Z,100139.16
2023-04-16T17:23:41.239Z,100141.91
2023-04-16T17:26:43.865Z,100143.28
2023-04-16T17:29:46.144Z,100141.84
2023-04-16T17:32:50.806Z,100144.88
2023-04-16T17:35:55.419Z,100160.53
2023-04-16T17:38:58.409Z,100160.53
2023-04-16T17:42:03.024Z,100161.06
2023-04-16T17:45:06.043Z,100164.28
2023-04-16T17:48:08.375Z,100158.53
2023-04-16T17:51:13.433Z,100151.59
2023-04-16T17:54:15.864Z,100171.09
2023-04-16T17:57:18.157Z,100174.34
2023-04-16T18:00:20.432Z,100175.13
2023-04-16T18:03:25.057Z,100169.00
2023-04-16T18:06:27.715Z,100172.50
2023-04-16T18:09:30.625Z,100177.66
2023-04-16T18:12:35.125Z,100182.31
2023-04-16T18:15:42.218Z,100186.09
2023-04-16T18:18:45.074Z,100184.44
2023-04-16T18:21:53.247Z,100176.72
2023-04-16T18:24:58.166Z,100186.28
2023-04-16T18:28:06.277Z,100176.94
2023-04-16T18:31:11.039Z,100163.22
2023-04-16T18:34:15.956Z,100170.25
2023-04-16T18:37:20.993Z,100165.81
2023-04-16T18:40:23.406Z,100176.00
2023-04-16T18:43:28.127Z,100178.47
2023-04-16T18:46:33.010Z,100171.06
2023-04-16T18:49:35.373Z,100167.50
2023-04-16T18:52:39.904Z,100174.06
2023-04-16T18:55:44.693Z,100160.31
2023-04-16T18:58:51.467Z,100170.75
2023-04-16T19:01:53.828Z,100168.81
2023-04-16T19:04:56.465Z,100169.13
2023-04-16T19:08:00.296Z,100172.41
2023-04-16T19:11:04.902Z,100175.13
2023-04-16T19:14:11.110Z,100174.00
2023-04-16T19:17:13.399Z,100182.28
2023-04-16T19:20:18.090Z,100178.09
2023-04-16T19:23:21.221Z,100182.75
2023-04-16T19:26:23.508Z,100176.97
2023-04-16T19:29:26.058Z,100167.31
2023-04-16T19:32:31.072Z,100168.94
2023-04-16T19:35:34.705Z,100169.94
2023-04-16T19:38:39.100Z,100168.81
2023-04-16T19:41:41.378Z,100169.34
2023-04-16T19:44:43.690Z,100166.09
2023-04-16T19:47:51.268Z,100166.34
2023-04-16T19:50:53.949Z,100178.66
2023-04-16T19:53:56.527Z,100171.75
2023-04-16T19:56:58.869Z,100171.44
2023-04-16T20:00:09.065Z,100170.59
2023-04-16T20:03:11.365Z,100157.19
2023-04-16T20:06:17.644Z,100154.38
2023-04-16T20:09:22.594Z,100160.44
2023-04-16T20:12:27.046Z,100151.31
2023-04-16T20:15:29.333Z,100154.88
2023-04-16T20:18:41.225Z,100162.91
2023-04-16T20:21:45.437Z,100165.09
2023-04-16T20:24:49.914Z,100149.97
2023-04-16T20:27:52.184Z,100160.44
2023-04-16T20:30:54.452Z,100165.28
2023-04-16T20:33:59.640Z,100159.28
2023-04-16T20:37:03.125Z,100150.97
2023-04-16T20:40:09.402Z,100165.28
2023-04-16T20:43:14.316Z,100147.13
2023-04-16T20:46:18.213Z,100145.78
2023-04-16T20:49:20.603Z,100143.88
2023-04-16T20:52:26.464Z,100152.84
2023-04-16T20:55:31.246Z,100155.97
2023-04-16T20:58:38.347Z,100152.84
2023-04-16T21:01:45.714Z,100149.22
2023-04-16T21:04:48.226Z,100134.41
2023-04-16T21:07:55.401Z,100134.88
2023-04-16T21:11:00.600Z,100125.00
2023-04-16T21:14:03.537Z,100159.69
2023-04-16T21:17:08.269Z,100154.69
2023-04-16T21:20:13.527Z,100141.56
2023-04-16T21:23:15.917Z,100139.91
2023-04-16T21:26:20.950Z,100129.16
2023-04-16T21:29:23.310Z,100129.44
2023-04-16T21:32:25.775Z,100121.19
2023-04-16T21:35:28.104Z,100128.31
2023-04-16T21:38:32.745Z,100130.38
2023-04-16T21:41:35.027Z,100135.03
2023-04-16T21:44:37.430Z,100132.53
2023-04-16T21:47:44.509Z,100131.22
2023-04-16T21:51:06.592Z,100134.56
2023-04-16T21:54:09.124Z,100133.97
2023-04-16T21:57:13.376Z,100130.31
2023-04-16T22:00:15.937Z,100126.44
2023-04-16T22:03:26.199Z,100131.16
2023-04-16T22:06:28.977Z,100117.00
2023-04-16T22:09:36.076Z,100128.88
2023-04-16T22:12:42.681Z,100124.47
2023-04-16T22:15:44.972Z,100131.09
2023-04-16T22:18:47.482Z,100116.16
2023-04-16T22:21:49.809Z,100115.16
2023-04-16T22:24:52.599Z,100117.84
2023-04-16T22:27:58.485Z,100104.06
2023-04-16T22:31:00.775Z,100101.41
2023-04-16T22:34:05.615Z,100116.50
2023-04-16T22:37:08.176Z,100110.19
2023-04-16T22:40:11.506Z,100099.81
2023-04-16T22:43:14.082Z,100110.00
2023-04-16T22:46:16.395Z,100107.44
2023-04-16T22:49:18.729Z,100113.25
2023-04-16T22:52:21.063Z,100097.06
2023-04-16T22:55:23.513Z,100101.97
2023-04-16T22:58:25.963Z,100086.03
2023-04-16T23:01:30.551Z,100100.91
2023-04-16T23:04:37.606Z,100090.75
2023-04-16T23:07:42.164Z,100087.69
2023-04-16T23:10:49.625Z,100087.13
2023-04-16T23:13:51.864Z,100084.03
2023-04-16T23:16:56.787Z,100085.47
2023-04-16T23:19:59.059Z,100081.31
2023-04-16T23:23:01.379Z,100082.66
2023-04-16T23:26:05.790Z,100067.25
2023-04-16T23:29:08.170Z,100074.38
2023-04-16T23:32:10.456Z,100070.06
2023-04-16T23:35:22.817Z,100067.16
2023-04-16T23:38:29.942Z,100061.13
2023-04-16T23:41:32.228Z,100063.91
2023-04-16T23:44:36.901Z,100063.88
2023-04-16T23:47:44.486Z,100050.19
2023-04-16T23:50:46.812Z,100054.50
2023-04-16T23:53:49.077Z,100059.97
2023-04-16T23:56:53.818Z,100060.56
2023-04-16T23:59:58.612Z,100061.63
